sensor_id;sensor_type;location;lat;lon;timestamp;P1;durP1;ratioP1;P2;durP2;ratioP2
31692;SDS011;37436;53.230;6.614;2023-06-19T00:01:36;8.85;;;6.97;;
31692;SDS011;37436;53.230;6.614;2023-06-19T00:04:02;9.93;;;6.65;;
31692;SDS011;37436;53.230;6.614;2023-06-19T00:06:28;8.60;;;6.95;;
31692;SDS011;37436;53.230;6.614;2023-06-19T00:08:54;8.15;;;6.72;;
31692;SDS011;37436;53.230;6.614;2023-06-19T00:11:21;7.85;;;6.88;;
31692;SDS011;37436;53.230;6.614;2023-06-19T00:13:47;12.35;;;7.05;;
31692;SDS011;37436;53.230;6.614;2023-06-19T00:16:14;13.27;;;6.70;;
31692;SDS011;37436;53.230;6.614;2023-06-19T00:18:41;11.93;;;7.10;;
31692;SDS011;37436;53.230;6.614;2023-06-19T00:21:12;10.70;;;6.75;;
31692;SDS011;37436;53.230;6.614;2023-06-19T00:23:38;10.45;;;6.57;;
31692;SDS011;37436;53.230;6.614;2023-06-19T00:26:10;11.45;;;6.93;;
31692;SDS011;37436;53.230;6.614;2023-06-19T00:28:39;14.53;;;6.90;;
31692;SDS011;37436;53.230;6.614;2023-06-19T00:31:10;9.63;;;6.93;;
31692;SDS011;37436;53.230;6.614;2023-06-19T00:33:38;9.20;;;7.57;;
31692;SDS011;37436;53.230;6.614;2023-06-19T00:36:17;9.15;;;6.78;;
31692;SDS011;37436;53.230;6.614;2023-06-19T00:38:51;10.55;;;7.07;;
31692;SDS011;37436;53.230;6.614;2023-06-19T00:41:21;9.82;;;7.40;;
31692;SDS011;37436;53.230;6.614;2023-06-19T00:43:51;8.40;;;6.70;;
31692;SDS011;37436;53.230;6.614;2023-06-19T00:46:19;9.70;;;6.57;;
31692;SDS011;37436;53.230;6.614;2023-06-19T00:48:54;9.32;;;6.93;;
31692;SDS011;37436;53.230;6.614;2023-06-19T00:51:24;9.70;;;7.47;;
31692;SDS011;37436;53.230;6.614;2023-06-19T00:53:50;9.25;;;6.22;;
31692;SDS011;37436;53.230;6.614;2023-06-19T00:59:25;8.93;;;6.60;;
31692;SDS011;37436;53.230;6.614;2023-06-19T01:01:52;8.32;;;6.68;;
31692;SDS011;37436;53.230;6.614;2023-06-19T01:04:36;8.98;;;6.97;;
31692;SDS011;37436;53.230;6.614;2023-06-19T01:07:08;7.72;;;6.45;;
31692;SDS011;37436;53.230;6.614;2023-06-19T01:09:50;10.45;;;6.25;;
31692;SDS011;37436;53.230;6.614;2023-06-19T01:12:48;13.98;;;6.95;;
31692;SDS011;37436;53.230;6.614;2023-06-19T01:15:28;9.10;;;6.45;;
31692;SDS011;37436;53.230;6.614;2023-06-19T01:18:22;11.48;;;6.45;;
31692;SDS011;37436;53.230;6.614;2023-06-19T01:23:37;9.63;;;5.93;;
31692;SDS011;37436;53.230;6.614;2023-06-19T01:26:09;10.73;;;6.25;;
31692;SDS011;37436;53.230;6.614;2023-06-19T01:28:42;10.75;;;6.95;;
31692;SDS011;37436;53.230;6.614;2023-06-19T01:33:58;10.55;;;7.03;;
31692;SDS011;37436;53.230;6.614;2023-06-19T01:36:28;8.63;;;6.28;;
31692;SDS011;37436;53.230;6.614;2023-06-19T01:39:11;9.05;;;6.85;;
31692;SDS011;37436;53.230;6.614;2023-06-19T01:41:59;10.30;;;6.95;;
31692;SDS011;37436;53.230;6.614;2023-06-19T01:44:48;8.85;;;6.65;;
31692;SDS011;37436;53.230;6.614;2023-06-19T01:47:18;14.40;;;6.50;;
31692;SDS011;37436;53.230;6.614;2023-06-19T01:52:58;9.23;;;7.00;;
31692;SDS011;37436;53.230;6.614;2023-06-19T01:58:49;10.20;;;7.07;;
31692;SDS011;37436;53.230;6.614;2023-06-19T02:01:41;14.05;;;7.22;;
31692;SDS011;37436;53.230;6.614;2023-06-19T02:08:16;10.02;;;6.28;;
31692;SDS011;37436;53.230;6.614;2023-06-19T02:16:11;9.88;;;6.55;;
31692;SDS011;37436;53.230;6.614;2023-06-19T02:18:38;12.93;;;7.15;;
31692;SDS011;37436;53.230;6.614;2023-06-19T02:21:05;10.13;;;7.15;;
31692;SDS011;37436;53.230;6.614;2023-06-19T02:23:47;7.53;;;6.38;;
31692;SDS011;37436;53.230;6.614;2023-06-19T02:26:17;8.48;;;6.82;;
31692;SDS011;37436;53.230;6.614;2023-06-19T02:28:47;9.50;;;6.70;;
31692;SDS011;37436;53.230;6.614;2023-06-19T02:31:28;9.63;;;7.28;;
31692;SDS011;37436;53.230;6.614;2023-06-19T02:34:07;12.95;;;7.30;;
31692;SDS011;37436;53.230;6.614;2023-06-19T02:36:43;10.50;;;7.15;;
31692;SDS011;37436;53.230;6.614;2023-06-19T02:39:13;12.77;;;7.38;;
31692;SDS011;37436;53.230;6.614;2023-06-19T02:41:40;11.57;;;7.60;;
31692;SDS011;37436;53.230;6.614;2023-06-19T02:44:16;9.88;;;6.95;;
31692;SDS011;37436;53.230;6.614;2023-06-19T02:46:55;9.93;;;6.95;;
31692;SDS011;37436;53.230;6.614;2023-06-19T02:49:22;9.05;;;6.65;;
31692;SDS011;37436;53.230;6.614;2023-06-19T02:51:48;16.20;;;7.82;;
31692;SDS011;37436;53.230;6.614;2023-06-19T02:54:14;18.20;;;7.50;;
31692;SDS011;37436;53.230;6.614;2023-06-19T02:56:59;12.45;;;7.43;;
31692;SDS011;37436;53.230;6.614;2023-06-19T02:59:28;11.15;;;7.35;;
31692;SDS011;37436;53.230;6.614;2023-06-19T03:02:07;10.27;;;6.70;;
31692;SDS011;37436;53.230;6.614;2023-06-19T03:04:37;14.50;;;6.85;;
31692;SDS011;37436;53.230;6.614;2023-06-19T03:07:04;16.38;;;7.10;;
31692;SDS011;37436;53.230;6.614;2023-06-19T03:09:37;12.15;;;7.05;;
31692;SDS011;37436;53.230;6.614;2023-06-19T03:12:07;13.35;;;7.30;;
31692;SDS011;37436;53.230;6.614;2023-06-19T03:14:37;17.23;;;8.13;;
31692;SDS011;37436;53.230;6.614;2023-06-19T03:17:11;11.95;;;6.80;;
31692;SDS011;37436;53.230;6.614;2023-06-19T03:19:58;10.48;;;7.07;;
31692;SDS011;37436;53.230;6.614;2023-06-19T03:22:24;14.25;;;7.70;;
31692;SDS011;37436;53.230;6.614;2023-06-19T03:25:02;10.80;;;7.18;;
31692;SDS011;37436;53.230;6.614;2023-06-19T03:27:32;8.80;;;7.13;;
31692;SDS011;37436;53.230;6.614;2023-06-19T03:30:14;12.05;;;7.20;;
31692;SDS011;37436;53.230;6.614;2023-06-19T03:32:44;10.68;;;7.38;;
31692;SDS011;37436;53.230;6.614;2023-06-19T03:35:10;9.23;;;6.75;;
31692;SDS011;37436;53.230;6.614;2023-06-19T03:37:37;12.43;;;7.95;;
31692;SDS011;37436;53.230;6.614;2023-06-19T03:40:05;14.02;;;7.97;;
31692;SDS011;37436;53.230;6.614;2023-06-19T03:42:33;11.25;;;7.60;;
31692;SDS011;37436;53.230;6.614;2023-06-19T03:45:09;12.80;;;7.07;;
31692;SDS011;37436;53.230;6.614;2023-06-19T03:47:35;11.85;;;7.47;;
31692;SDS011;37436;53.230;6.614;2023-06-19T03:50:04;9.98;;;7.18;;
31692;SDS011;37436;53.230;6.614;2023-06-19T03:52:35;12.32;;;7.32;;
31692;SDS011;37436;53.230;6.614;2023-06-19T03:55:03;15.23;;;7.85;;
31692;SDS011;37436;53.230;6.614;2023-06-19T03:57:32;12.27;;;7.20;;
31692;SDS011;37436;53.230;6.614;2023-06-19T04:00:02;14.10;;;7.88;;
31692;SDS011;37436;53.230;6.614;2023-06-19T04:05:05;15.40;;;7.78;;
31692;SDS011;37436;53.230;6.614;2023-06-19T04:07:31;10.63;;;7.07;;
31692;SDS011;37436;53.230;6.614;2023-06-19T04:10:07;12.25;;;7.25;;
31692;SDS011;37436;53.230;6.614;2023-06-19T04:12:34;11.60;;;7.22;;
31692;SDS011;37436;53.230;6.614;2023-06-19T04:15:01;16.45;;;7.10;;
31692;SDS011;37436;53.230;6.614;2023-06-19T04:17:28;9.30;;;6.50;;
31692;SDS011;37436;53.230;6.614;2023-06-19T04:20:10;8.02;;;5.93;;
31692;SDS011;37436;53.230;6.614;2023-06-19T04:22:38;8.82;;;6.63;;
31692;SDS011;37436;53.230;6.614;2023-06-19T04:25:05;9.73;;;6.53;;
31692;SDS011;37436;53.230;6.614;2023-06-19T04:27:33;9.57;;;6.22;;
31692;SDS011;37436;53.230;6.614;2023-06-19T04:30:00;12.90;;;6.80;;
31692;SDS011;37436;53.230;6.614;2023-06-19T04:32:28;11.73;;;6.47;;
31692;SDS011;37436;53.230;6.614;2023-06-19T04:34:58;11.07;;;6.75;;
31692;SDS011;37436;53.230;6.614;2023-06-19T04:37:25;15.23;;;6.78;;
31692;SDS011;37436;53.230;6.614;2023-06-19T04:39:52;12.50;;;6.75;;
31692;SDS011;37436;53.230;6.614;2023-06-19T04:42:18;11.55;;;6.72;;
31692;SDS011;37436;53.230;6.614;2023-06-19T04:44:46;11.90;;;5.93;;
31692;SDS011;37436;53.230;6.614;2023-06-19T04:47:17;8.23;;;5.47;;
31692;SDS011;37436;53.230;6.614;2023-06-19T04:49:55;9.02;;;6.05;;
31692;SDS011;37436;53.230;6.614;2023-06-19T04:52:30;7.10;;;4.55;;
31692;SDS011;37436;53.230;6.614;2023-06-19T04:55:01;7.10;;;4.47;;
31692;SDS011;37436;53.230;6.614;2023-06-19T05:00:36;8.95;;;5.10;;
31692;SDS011;37436;53.230;6.614;2023-06-19T05:03:04;6.82;;;4.60;;
31692;SDS011;37436;53.230;6.614;2023-06-19T05:05:49;7.43;;;4.88;;
31692;SDS011;37436;53.230;6.614;2023-06-19T05:08:28;10.10;;;5.00;;
31692;SDS011;37436;53.230;6.614;2023-06-19T05:19:23;6.70;;;4.40;;
31692;SDS011;37436;53.230;6.614;2023-06-19T05:24:47;7.88;;;4.70;;
31692;SDS011;37436;53.230;6.614;2023-06-19T05:27:13;13.18;;;4.13;;
31692;SDS011;37436;53.230;6.614;2023-06-19T05:29:40;9.52;;;5.57;;
31692;SDS011;37436;53.230;6.614;2023-06-19T05:32:07;5.32;;;4.20;;
31692;SDS011;37436;53.230;6.614;2023-06-19T05:34:33;7.72;;;4.32;;
31692;SDS011;37436;53.230;6.614;2023-06-19T05:36:59;9.10;;;5.00;;
31692;SDS011;37436;53.230;6.614;2023-06-19T05:39:28;6.80;;;4.80;;
31692;SDS011;37436;53.230;6.614;2023-06-19T05:41:55;8.77;;;5.10;;
31692;SDS011;37436;53.230;6.614;2023-06-19T05:44:28;6.55;;;4.43;;
31692;SDS011;37436;53.230;6.614;2023-06-19T05:47:08;5.90;;;4.43;;
31692;SDS011;37436;53.230;6.614;2023-06-19T05:49:35;6.32;;;4.30;;
31692;SDS011;37436;53.230;6.614;2023-06-19T05:52:04;5.97;;;4.68;;
31692;SDS011;37436;53.230;6.614;2023-06-19T05:54:40;6.05;;;3.13;;
31692;SDS011;37436;53.230;6.614;2023-06-19T05:59:46;12.25;;;5.15;;
31692;SDS011;37436;53.230;6.614;2023-06-19T06:02:46;13.90;;;5.55;;
31692;SDS011;37436;53.230;6.614;2023-06-19T06:05:13;9.57;;;4.47;;
31692;SDS011;37436;53.230;6.614;2023-06-19T06:07:41;9.25;;;5.55;;
31692;SDS011;37436;53.230;6.614;2023-06-19T06:10:09;9.02;;;4.78;;
31692;SDS011;37436;53.230;6.614;2023-06-19T06:12:36;7.32;;;5.07;;
31692;SDS011;37436;53.230;6.614;2023-06-19T06:15:08;10.25;;;5.85;;
31692;SDS011;37436;53.230;6.614;2023-06-19T06:18:04;14.50;;;6.57;;
31692;SDS011;37436;53.230;6.614;2023-06-19T06:20:34;13.20;;;6.30;;
31692;SDS011;37436;53.230;6.614;2023-06-19T06:23:05;10.57;;;6.65;;
31692;SDS011;37436;53.230;6.614;2023-06-19T06:25:48;12.15;;;7.55;;
31692;SDS011;37436;53.230;6.614;2023-06-19T06:28:16;9.90;;;5.72;;
31692;SDS011;37436;53.230;6.614;2023-06-19T06:30:55;13.50;;;7.10;;
31692;SDS011;37436;53.230;6.614;2023-06-19T06:33:22;13.98;;;7.60;;
31692;SDS011;37436;53.230;6.614;2023-06-19T06:35:48;13.13;;;6.65;;
31692;SDS011;37436;53.230;6.614;2023-06-19T06:38:19;12.57;;;7.22;;
31692;SDS011;37436;53.230;6.614;2023-06-19T06:40:46;8.57;;;5.72;;
31692;SDS011;37436;53.230;6.614;2023-06-19T06:43:19;10.15;;;6.38;;
31692;SDS011;37436;53.230;6.614;2023-06-19T06:45:46;13.80;;;6.15;;
31692;SDS011;37436;53.230;6.614;2023-06-19T06:48:33;12.75;;;6.32;;
31692;SDS011;37436;53.230;6.614;2023-06-19T06:50:59;11.20;;;6.22;;
31692;SDS011;37436;53.230;6.614;2023-06-19T06:53:27;10.45;;;5.75;;
31692;SDS011;37436;53.230;6.614;2023-06-19T06:55:53;8.30;;;5.22;;
31692;SDS011;37436;53.230;6.614;2023-06-19T06:58:20;7.32;;;4.85;;
31692;SDS011;37436;53.230;6.614;2023-06-19T07:00:46;6.47;;;4.97;;
31692;SDS011;37436;53.230;6.614;2023-06-19T07:03:13;8.77;;;5.18;;
31692;SDS011;37436;53.230;6.614;2023-06-19T07:05:39;7.13;;;4.70;;
31692;SDS011;37436;53.230;6.614;2023-06-19T07:08:05;8.57;;;5.05;;
31692;SDS011;37436;53.230;6.614;2023-06-19T07:10:34;8.52;;;5.80;;
31692;SDS011;37436;53.230;6.614;2023-06-19T07:13:06;7.75;;;5.15;;
31692;SDS011;37436;53.230;6.614;2023-06-19T07:15:41;8.55;;;5.47;;
31692;SDS011;37436;53.230;6.614;2023-06-19T07:18:11;8.48;;;6.00;;
31692;SDS011;37436;53.230;6.614;2023-06-19T07:20:38;8.85;;;5.88;;
31692;SDS011;37436;53.230;6.614;2023-06-19T07:23:14;9.07;;;5.50;;
31692;SDS011;37436;53.230;6.614;2023-06-19T07:25:41;12.20;;;8.07;;
31692;SDS011;37436;53.230;6.614;2023-06-19T07:28:07;11.98;;;6.53;;
31692;SDS011;37436;53.230;6.614;2023-06-19T07:30:33;13.15;;;6.35;;
31692;SDS011;37436;53.230;6.614;2023-06-19T07:32:59;11.38;;;7.07;;
31692;SDS011;37436;53.230;6.614;2023-06-19T07:35:25;12.40;;;8.02;;
31692;SDS011;37436;53.230;6.614;2023-06-19T07:37:51;14.25;;;8.18;;
31692;SDS011;37436;53.230;6.614;2023-06-19T07:40:17;12.48;;;8.93;;
31692;SDS011;37436;53.230;6.614;2023-06-19T07:42:43;15.10;;;8.98;;
31692;SDS011;37436;53.230;6.614;2023-06-19T07:45:10;19.35;;;9.48;;
31692;SDS011;37436;53.230;6.614;2023-06-19T07:47:40;20.17;;;10.38;;
31692;SDS011;37436;53.230;6.614;2023-06-19T07:50:15;22.08;;;11.20;;
31692;SDS011;37436;53.230;6.614;2023-06-19T07:52:41;17.05;;;11.38;;
31692;SDS011;37436;53.230;6.614;2023-06-19T07:55:07;19.33;;;11.23;;
31692;SDS011;37436;53.230;6.614;2023-06-19T07:57:37;24.50;;;12.10;;
31692;SDS011;37436;53.230;6.614;2023-06-19T08:00:10;19.88;;;11.70;;
31692;SDS011;37436;53.230;6.614;2023-06-19T08:02:40;18.02;;;8.98;;
31692;SDS011;37436;53.230;6.614;2023-06-19T08:05:06;22.60;;;12.25;;
31692;SDS011;37436;53.230;6.614;2023-06-19T08:07:43;24.08;;;11.20;;
31692;SDS011;37436;53.230;6.614;2023-06-19T08:10:09;21.73;;;10.80;;
31692;SDS011;37436;53.230;6.614;2023-06-19T08:12:36;24.98;;;11.13;;
31692;SDS011;37436;53.230;6.614;2023-06-19T08:15:02;24.63;;;10.80;;
31692;SDS011;37436;53.230;6.614;2023-06-19T08:17:28;20.33;;;10.52;;
31692;SDS011;37436;53.230;6.614;2023-06-19T08:19:54;19.48;;;10.82;;
31692;SDS011;37436;53.230;6.614;2023-06-19T08:22:27;16.50;;;9.20;;
31692;SDS011;37436;53.230;6.614;2023-06-19T08:24:59;16.75;;;8.52;;
31692;SDS011;37436;53.230;6.614;2023-06-19T08:27:26;13.18;;;7.10;;
31692;SDS011;37436;53.230;6.614;2023-06-19T08:30:02;14.68;;;6.68;;
31692;SDS011;37436;53.230;6.614;2023-06-19T08:32:32;12.02;;;7.30;;
31692;SDS011;37436;53.230;6.614;2023-06-19T08:35:06;21.88;;;7.93;;
31692;SDS011;37436;53.230;6.614;2023-06-19T08:37:33;14.02;;;6.82;;
31692;SDS011;37436;53.230;6.614;2023-06-19T08:39:59;12.15;;;6.93;;
31692;SDS011;37436;53.230;6.614;2023-06-19T08:42:41;12.75;;;6.93;;
31692;SDS011;37436;53.230;6.614;2023-06-19T08:45:08;11.60;;;5.22;;
31692;SDS011;37436;53.230;6.614;2023-06-19T08:47:36;7.45;;;5.03;;
31692;SDS011;37436;53.230;6.614;2023-06-19T08:50:02;10.88;;;6.40;;
31692;SDS011;37436;53.230;6.614;2023-06-19T08:52:32;10.63;;;6.25;;
31692;SDS011;37436;53.230;6.614;2023-06-19T08:54:58;10.10;;;6.03;;
31692;SDS011;37436;53.230;6.614;2023-06-19T08:57:34;9.75;;;4.35;;
31692;SDS011;37436;53.230;6.614;2023-06-19T09:00:00;8.07;;;3.83;;
31692;SDS011;37436;53.230;6.614;2023-06-19T09:02:36;12.00;;;5.10;;
31692;SDS011;37436;53.230;6.614;2023-06-19T09:05:40;9.13;;;5.03;;
31692;SDS011;37436;53.230;6.614;2023-06-19T09:08:02;10.02;;;4.43;;
31692;SDS011;37436;53.230;6.614;2023-06-19T09:10:29;12.60;;;5.50;;
31692;SDS011;37436;53.230;6.614;2023-06-19T09:13:02;10.00;;;4.78;;
31692;SDS011;37436;53.230;6.614;2023-06-19T09:15:35;11.95;;;4.55;;
31692;SDS011;37436;53.230;6.614;2023-06-19T09:18:05;9.70;;;5.45;;
31692;SDS011;37436;53.230;6.614;2023-06-19T09:20:33;5.88;;;3.45;;
31692;SDS011;37436;53.230;6.614;2023-06-19T09:23:02;6.38;;;4.05;;
31692;SDS011;37436;53.230;6.614;2023-06-19T09:25:51;19.15;;;4.57;;
31692;SDS011;37436;53.230;6.614;2023-06-19T09:28:21;11.95;;;3.75;;
31692;SDS011;37436;53.230;6.614;2023-06-19T09:33:41;5.32;;;3.95;;
31692;SDS011;37436;53.230;6.614;2023-06-19T09:36:12;8.43;;;3.35;;
31692;SDS011;37436;53.230;6.614;2023-06-19T09:38:38;7.93;;;4.07;;
31692;SDS011;37436;53.230;6.614;2023-06-19T09:41:06;6.57;;;3.75;;
31692;SDS011;37436;53.230;6.614;2023-06-19T09:46:07;6.65;;;3.60;;
31692;SDS011;37436;53.230;6.614;2023-06-19T09:48:34;6.43;;;4.47;;
31692;SDS011;37436;53.230;6.614;2023-06-19T09:51:06;7.95;;;4.53;;
31692;SDS011;37436;53.230;6.614;2023-06-19T09:53:35;7.32;;;4.35;;
31692;SDS011;37436;53.230;6.614;2023-06-19T09:56:05;6.47;;;4.28;;
31692;SDS011;37436;53.230;6.614;2023-06-19T09:58:36;8.52;;;4.82;;
31692;SDS011;37436;53.230;6.614;2023-06-19T10:01:04;9.18;;;5.35;;
31692;SDS011;37436;53.230;6.614;2023-06-19T10:03:39;10.82;;;6.18;;
31692;SDS011;37436;53.230;6.614;2023-06-19T10:06:05;10.55;;;5.22;;
31692;SDS011;37436;53.230;6.614;2023-06-19T10:08:41;12.45;;;5.65;;
31692;SDS011;37436;53.230;6.614;2023-06-19T10:11:08;14.05;;;6.75;;
31692;SDS011;37436;53.230;6.614;2023-06-19T10:13:35;11.43;;;6.18;;
31692;SDS011;37436;53.230;6.614;2023-06-19T10:16:04;8.90;;;6.28;;
31692;SDS011;37436;53.230;6.614;2023-06-19T10:18:46;12.10;;;6.80;;
31692;SDS011;37436;53.230;6.614;2023-06-19T10:21:42;17.60;;;6.47;;
31692;SDS011;37436;53.230;6.614;2023-06-19T10:24:03;10.82;;;6.07;;
31692;SDS011;37436;53.230;6.614;2023-06-19T10:26:33;10.65;;;6.35;;
31692;SDS011;37436;53.230;6.614;2023-06-19T10:29:13;14.85;;;7.45;;
31692;SDS011;37436;53.230;6.614;2023-06-19T10:31:39;13.60;;;6.47;;
31692;SDS011;37436;53.230;6.614;2023-06-19T10:34:05;14.80;;;7.28;;
31692;SDS011;37436;53.230;6.614;2023-06-19T10:36:35;13.73;;;7.70;;
31692;SDS011;37436;53.230;6.614;2023-06-19T10:39:05;12.00;;;7.15;;
31692;SDS011;37436;53.230;6.614;2023-06-19T10:41:51;13.65;;;8.00;;
31692;SDS011;37436;53.230;6.614;2023-06-19T10:44:18;13.40;;;7.97;;
31692;SDS011;37436;53.230;6.614;2023-06-19T10:46:44;11.77;;;8.32;;
31692;SDS011;37436;53.230;6.614;2023-06-19T10:49:10;14.43;;;8.25;;
31692;SDS011;37436;53.230;6.614;2023-06-19T10:51:39;15.93;;;8.45;;
31692;SDS011;37436;53.230;6.614;2023-06-19T10:54:09;15.55;;;8.77;;
31692;SDS011;37436;53.230;6.614;2023-06-19T10:56:36;18.10;;;8.35;;
31692;SDS011;37436;53.230;6.614;2023-06-19T10:59:03;15.02;;;7.97;;
31692;SDS011;37436;53.230;6.614;2023-06-19T11:01:44;12.50;;;8.40;;
31692;SDS011;37436;53.230;6.614;2023-06-19T11:04:11;19.17;;;8.02;;
31692;SDS011;37436;53.230;6.614;2023-06-19T11:06:38;16.02;;;7.80;;
31692;SDS011;37436;53.230;6.614;2023-06-19T11:09:08;14.93;;;8.52;;
31692;SDS011;37436;53.230;6.614;2023-06-19T11:14:05;13.70;;;7.15;;
31692;SDS011;37436;53.230;6.614;2023-06-19T11:16:39;19.63;;;8.50;;
31692;SDS011;37436;53.230;6.614;2023-06-19T11:19:13;12.75;;;7.53;;
31692;SDS011;37436;53.230;6.614;2023-06-19T11:21:40;12.15;;;7.63;;
31692;SDS011;37436;53.230;6.614;2023-06-19T11:24:14;14.15;;;7.80;;
31692;SDS011;37436;53.230;6.614;2023-06-19T11:26:42;10.70;;;6.85;;
31692;SDS011;37436;53.230;6.614;2023-06-19T11:29:15;12.30;;;7.80;;
31692;SDS011;37436;53.230;6.614;2023-06-19T11:31:41;12.43;;;7.57;;
31692;SDS011;37436;53.230;6.614;2023-06-19T11:34:08;14.10;;;7.25;;
31692;SDS011;37436;53.230;6.614;2023-06-19T11:36:39;12.70;;;6.55;;
31692;SDS011;37436;53.230;6.614;2023-06-19T11:39:12;13.15;;;8.23;;
31692;SDS011;37436;53.230;6.614;2023-06-19T11:41:39;16.63;;;8.73;;
31692;SDS011;37436;53.230;6.614;2023-06-19T11:44:06;13.60;;;7.63;;
31692;SDS011;37436;53.230;6.614;2023-06-19T11:46:34;14.23;;;7.72;;
31692;SDS011;37436;53.230;6.614;2023-06-19T11:49:06;13.35;;;7.47;;
31692;SDS011;37436;53.230;6.614;2023-06-19T11:51:36;12.07;;;6.88;;
31692;SDS011;37436;53.230;6.614;2023-06-19T11:54:06;9.98;;;6.53;;
31692;SDS011;37436;53.230;6.614;2023-06-19T11:56:34;14.00;;;8.35;;
31692;SDS011;37436;53.230;6.614;2023-06-19T11:59:00;14.18;;;7.95;;
31692;SDS011;37436;53.230;6.614;2023-06-19T12:01:37;17.70;;;8.38;;
31692;SDS011;37436;53.230;6.614;2023-06-19T12:04:04;17.08;;;8.80;;
31692;SDS011;37436;53.230;6.614;2023-06-19T12:06:33;13.25;;;7.82;;
31692;SDS011;37436;53.230;6.614;2023-06-19T12:09:01;13.38;;;7.70;;
31692;SDS011;37436;53.230;6.614;2023-06-19T12:11:29;15.50;;;7.85;;
31692;SDS011;37436;53.230;6.614;2023-06-19T12:14:05;11.50;;;8.30;;
31692;SDS011;37436;53.230;6.614;2023-06-19T12:16:32;20.15;;;9.60;;
31692;SDS011;37436;53.230;6.614;2023-06-19T12:18:58;24.00;;;9.45;;
31692;SDS011;37436;53.230;6.614;2023-06-19T12:21:31;13.50;;;9.30;;
31692;SDS011;37436;53.230;6.614;2023-06-19T12:23:57;15.05;;;8.70;;
31692;SDS011;37436;53.230;6.614;2023-06-19T12:26:23;21.30;;;7.88;;
31692;SDS011;37436;53.230;6.614;2023-06-19T12:28:51;13.75;;;9.13;;
31692;SDS011;37436;53.230;6.614;2023-06-19T12:31:17;16.63;;;8.82;;
31692;SDS011;37436;53.230;6.614;2023-06-19T12:33:45;16.23;;;8.95;;
31692;SDS011;37436;53.230;6.614;2023-06-19T12:36:16;14.55;;;8.32;;
31692;SDS011;37436;53.230;6.614;2023-06-19T12:38:43;12.57;;;6.82;;
31692;SDS011;37436;53.230;6.614;2023-06-19T12:41:14;13.75;;;8.15;;
31692;SDS011;37436;53.230;6.614;2023-06-19T12:43:40;14.70;;;7.85;;
31692;SDS011;37436;53.230;6.614;2023-06-19T12:46:17;13.43;;;8.52;;
31692;SDS011;37436;53.230;6.614;2023-06-19T12:48:43;15.55;;;8.77;;
31692;SDS011;37436;53.230;6.614;2023-06-19T12:51:23;17.65;;;9.82;;
31692;SDS011;37436;53.230;6.614;2023-06-19T12:53:52;13.50;;;8.02;;
31692;SDS011;37436;53.230;6.614;2023-06-19T12:56:19;12.48;;;7.60;;
31692;SDS011;37436;53.230;6.614;2023-06-19T12:58:46;16.73;;;8.55;;
31692;SDS011;37436;53.230;6.614;2023-06-19T13:01:37;17.25;;;8.40;;
31692;SDS011;37436;53.230;6.614;2023-06-19T13:04:13;15.90;;;7.43;;
31692;SDS011;37436;53.230;6.614;2023-06-19T13:06:40;14.40;;;8.70;;
31692;SDS011;37436;53.230;6.614;2023-06-19T13:09:06;14.05;;;7.95;;
31692;SDS011;37436;53.230;6.614;2023-06-19T13:11:35;15.15;;;7.90;;
31692;SDS011;37436;53.230;6.614;2023-06-19T13:14:02;16.40;;;8.05;;
31692;SDS011;37436;53.230;6.614;2023-06-19T13:16:35;16.08;;;7.78;;
31692;SDS011;37436;53.230;6.614;2023-06-19T13:19:02;17.15;;;8.75;;
31692;SDS011;37436;53.230;6.614;2023-06-19T13:21:29;12.73;;;7.35;;
31692;SDS011;37436;53.230;6.614;2023-06-19T13:23:55;12.70;;;7.32;;
31692;SDS011;37436;53.230;6.614;2023-06-19T13:26:24;16.15;;;8.25;;
31692;SDS011;37436;53.230;6.614;2023-06-19T13:28:53;10.30;;;6.68;;
31692;SDS011;37436;53.230;6.614;2023-06-19T13:31:27;11.68;;;6.93;;
31692;SDS011;37436;53.230;6.614;2023-06-19T13:33:53;15.50;;;7.00;;
31692;SDS011;37436;53.230;6.614;2023-06-19T13:36:20;14.43;;;7.03;;
31692;SDS011;37436;53.230;6.614;2023-06-19T13:38:49;11.65;;;6.80;;
31692;SDS011;37436;53.230;6.614;2023-06-19T13:41:17;15.98;;;7.50;;
31692;SDS011;37436;53.230;6.614;2023-06-19T13:43:49;12.25;;;6.43;;
31692;SDS011;37436;53.230;6.614;2023-06-19T13:46:15;12.93;;;6.95;;
31692;SDS011;37436;53.230;6.614;2023-06-19T13:48:42;13.35;;;7.47;;
31692;SDS011;37436;53.230;6.614;2023-06-19T13:51:08;12.43;;;5.78;;
31692;SDS011;37436;53.230;6.614;2023-06-19T13:53:34;10.77;;;5.25;;
31692;SDS011;37436;53.230;6.614;2023-06-19T13:56:00;13.05;;;6.88;;
31692;SDS011;37436;53.230;6.614;2023-06-19T13:58:26;13.32;;;6.22;;
31692;SDS011;37436;53.230;6.614;2023-06-19T14:00:56;9.38;;;5.78;;
31692;SDS011;37436;53.230;6.614;2023-06-19T14:03:24;10.00;;;5.93;;
31692;SDS011;37436;53.230;6.614;2023-06-19T14:08:37;9.40;;;6.50;;
31692;SDS011;37436;53.230;6.614;2023-06-19T14:11:04;9.98;;;6.45;;
31692;SDS011;37436;53.230;6.614;2023-06-19T14:13:30;12.00;;;7.03;;
31692;SDS011;37436;53.230;6.614;2023-06-19T14:15:59;9.80;;;5.88;;
31692;SDS011;37436;53.230;6.614;2023-06-19T14:18:28;10.38;;;6.15;;
31692;SDS011;37436;53.230;6.614;2023-06-19T14:21:01;7.72;;;5.72;;
31692;SDS011;37436;53.230;6.614;2023-06-19T14:23:37;14.80;;;6.43;;
31692;SDS011;37436;53.230;6.614;2023-06-19T14:26:15;8.88;;;6.28;;
31692;SDS011;37436;53.230;6.614;2023-06-19T14:28:51;8.02;;;5.85;;
31692;SDS011;37436;53.230;6.614;2023-06-19T14:31:34;9.57;;;6.22;;
31692;SDS011;37436;53.230;6.614;2023-06-19T14:34:09;10.13;;;5.38;;
31692;SDS011;37436;53.230;6.614;2023-06-19T14:36:38;9.68;;;5.95;;
31692;SDS011;37436;53.230;6.614;2023-06-19T14:39:05;9.63;;;6.00;;
31692;SDS011;37436;53.230;6.614;2023-06-19T14:41:37;11.25;;;5.57;;
31692;SDS011;37436;53.230;6.614;2023-06-19T14:44:07;7.85;;;5.30;;
31692;SDS011;37436;53.230;6.614;2023-06-19T14:46:39;9.20;;;5.30;;
31692;SDS011;37436;53.230;6.614;2023-06-19T14:49:06;13.85;;;7.07;;
31692;SDS011;37436;53.230;6.614;2023-06-19T14:51:46;13.10;;;6.00;;
31692;SDS011;37436;53.230;6.614;2023-06-19T14:54:13;9.32;;;6.63;;
31692;SDS011;37436;53.230;6.614;2023-06-19T14:56:44;9.77;;;6.13;;
31692;SDS011;37436;53.230;6.614;2023-06-19T14:59:13;14.88;;;6.95;;
31692;SDS011;37436;53.230;6.614;2023-06-19T15:01:39;12.93;;;6.20;;
31692;SDS011;37436;53.230;6.614;2023-06-19T15:04:14;10.00;;;5.93;;
31692;SDS011;37436;53.230;6.614;2023-06-19T15:06:43;9.27;;;5.38;;
31692;SDS011;37436;53.230;6.614;2023-06-19T15:09:12;7.90;;;5.47;;
31692;SDS011;37436;53.230;6.614;2023-06-19T15:11:47;8.25;;;5.70;;
31692;SDS011;37436;53.230;6.614;2023-06-19T15:14:13;9.40;;;5.63;;
31692;SDS011;37436;53.230;6.614;2023-06-19T15:16:40;7.63;;;5.75;;
31692;SDS011;37436;53.230;6.614;2023-06-19T15:19:12;10.70;;;6.90;;
31692;SDS011;37436;53.230;6.614;2023-06-19T15:21:41;11.07;;;6.85;;
31692;SDS011;37436;53.230;6.614;2023-06-19T15:24:19;13.10;;;6.15;;
31692;SDS011;37436;53.230;6.614;2023-06-19T15:26:45;11.57;;;4.97;;
31692;SDS011;37436;53.230;6.614;2023-06-19T15:29:15;13.93;;;5.65;;
31692;SDS011;37436;53.230;6.614;2023-06-19T15:31:43;29.75;;;7.13;;
31692;SDS011;37436;53.230;6.614;2023-06-19T15:34:09;19.75;;;8.00;;
31692;SDS011;37436;53.230;6.614;2023-06-19T15:36:35;9.38;;;5.72;;
31692;SDS011;37436;53.230;6.614;2023-06-19T15:39:01;14.02;;;7.10;;
31692;SDS011;37436;53.230;6.614;2023-06-19T15:41:28;8.10;;;6.60;;
31692;SDS011;37436;53.230;6.614;2023-06-19T15:43:54;9.25;;;6.20;;
31692;SDS011;37436;53.230;6.614;2023-06-19T15:46:39;8.15;;;5.85;;
31692;SDS011;37436;53.230;6.614;2023-06-19T15:49:06;13.50;;;6.15;;
31692;SDS011;37436;53.230;6.614;2023-06-19T15:51:32;8.95;;;5.18;;
31692;SDS011;37436;53.230;6.614;2023-06-19T15:54:00;5.97;;;4.68;;